Spring's Hourly Summary for Wednesday, March 15, 2017
Hour Temp
(f)
RH
(%)
Solar Rad.
(MJ/m2)
Rainfall
(in)
Wind
(mph)
3/15/2017 12:00 AM 54 70 0 0 0.09
3/15/2017 1:00 AM 52 78 0 0 0.02
3/15/2017 2:00 AM 50 88 0 0 0
3/15/2017 3:00 AM 49 93 0 0 0.13
3/15/2017 4:00 AM 48 94 0 0 0.15
3/15/2017 5:00 AM 47 94 0 0 0.3
3/15/2017 6:00 AM 47 96 0 0 0.44
3/15/2017 7:00 AM 47 93 0 0 0.6
3/15/2017 8:00 AM 48 91 0.03 0 2.05
3/15/2017 9:00 AM 49 82 0.35 0 3.41
3/15/2017 10:00 AM 52 71 1.43 0 3.96
3/15/2017 11:00 AM 56 62 2.19 0 3.57
3/15/2017 12:00 PM 61 59 2.77 0 4.02
3/15/2017 1:00 PM 63 56 3.15 0 3.88
3/15/2017 2:00 PM 65 52 3.27 0 4.13
3/15/2017 3:00 PM 67 49 2.89 0 4.26
3/15/2017 4:00 PM 67 49 2.35 0 5.79
3/15/2017 5:00 PM 67 48 2.24 0 5.17
3/15/2017 6:00 PM 65 53 1.14 0 4.99
3/15/2017 7:00 PM 63 58 0.65 0 5.13
3/15/2017 8:00 PM 60 66 0.05 0 6.05
3/15/2017 9:00 PM 57 76 0 0 4.35
3/15/2017 10:00 PM 56 81 0 0 4.04
3/15/2017 11:00 PM 55 84 0 0 3.17
Data Summary 56 72 22.51 0.00 2.90